createdAt,value
2018-05-31T00:00:31.779Z,100895.64
2018-05-31T00:03:00.066Z,100893.27
2018-05-31T00:05:28.371Z,100897.28
2018-05-31T00:07:56.756Z,100896.51
2018-05-31T00:10:25.029Z,100895.66
2018-05-31T00:12:54.239Z,100883.05
2018-05-31T00:15:23.281Z,100883.50
2018-05-31T00:17:51.565Z,100881.33
2018-05-31T00:20:19.945Z,100876.43
2018-05-31T00:22:48.268Z,100876.83
2018-05-31T00:25:16.558Z,100879.45
2018-05-31T00:27:44.816Z,100876.24
2018-05-31T00:30:13.100Z,100877.76
2018-05-31T00:32:41.489Z,100875.49
2018-05-31T00:35:10.558Z,100880.83
2018-05-31T00:37:38.823Z,100872.42
2018-05-31T00:40:07.186Z,100882.42
2018-05-31T00:42:35.466Z,100884.44
2018-05-31T00:45:04.494Z,100890.14
2018-05-31T00:47:32.768Z,100893.17
2018-05-31T00:50:01.787Z,100888.02
2018-05-31T00:52:30.065Z,100885.53
2018-05-31T00:54:59.099Z,100886.39
2018-05-31T00:57:27.371Z,100884.17
2018-05-31T00:59:55.623Z,100884.66
2018-05-31T01:02:24.765Z,100885.06
2018-05-31T01:04:53.812Z,100890.67
2018-05-31T01:07:22.162Z,100891.64
2018-05-31T01:09:50.456Z,100894.58
2018-05-31T01:12:19.545Z,100894.86
2018-05-31T01:14:48.608Z,100892.25
2018-05-31T01:17:16.977Z,100887.70
2018-05-31T01:19:45.278Z,100883.41
2018-05-31T01:22:13.739Z,100881.69
2018-05-31T01:24:42.778Z,100883.78
2018-05-31T01:27:11.161Z,100888.19
2018-05-31T01:29:39.452Z,100884.52
2018-05-31T01:32:08.613Z,100884.48
2018-05-31T01:34:36.851Z,100882.18
2018-05-31T01:37:05.138Z,100882.52
2018-05-31T01:39:33.469Z,100880.77
2018-05-31T01:42:01.833Z,100873.18
2018-05-31T01:44:30.218Z,100874.93
2018-05-31T01:46:58.511Z,100870.81
2018-05-31T01:49:26.770Z,100869.06
2018-05-31T01:51:55.815Z,100870.94
2018-05-31T01:54:24.104Z,100869.12
2018-05-31T01:56:52.373Z,100869.29
2018-05-31T01:59:21.597Z,100867.64
2018-05-31T02:01:49.975Z,100873.64
2018-05-31T02:04:19.102Z,100863.12
2018-05-31T02:06:47.391Z,100865.05
2018-05-31T02:09:15.676Z,100872.42
2018-05-31T02:11:43.969Z,100869.74
2018-05-31T02:14:12.275Z,100865.61
2018-05-31T02:16:40.541Z,100861.46
2018-05-31T02:19:08.815Z,100864.02
2018-05-31T02:21:37.849Z,100866.75
2018-05-31T02:24:06.241Z,100862.62
2018-05-31T02:26:34.632Z,100866.45
2018-05-31T02:29:02.923Z,100867.63
2018-05-31T02:31:31.219Z,100857.50
2018-05-31T02:33:59.476Z,100866.45
2018-05-31T02:36:27.791Z,100868.47
2018-05-31T02:38:56.188Z,100871.46
2018-05-31T02:41:24.469Z,100875.36
2018-05-31T02:43:53.491Z,100868.78
2018-05-31T02:46:21.780Z,100877.58
2018-05-31T02:48:50.176Z,100880.95
2018-05-31T02:51:18.476Z,100895.18
2018-05-31T02:53:46.767Z,100890.20
2018-05-31T02:56:15.121Z,100899.31
2018-05-31T02:58:44.229Z,100896.12
2018-05-31T03:01:13.338Z,100896.28
2018-05-31T03:03:42.472Z,100898.00
2018-05-31T03:06:10.742Z,100889.88
2018-05-31T03:08:39.827Z,100892.83
2018-05-31T03:11:09.593Z,100897.11
2018-05-31T03:13:37.868Z,100893.30
2018-05-31T03:16:06.919Z,100889.17
2018-05-31T03:18:35.285Z,100889.48
2018-05-31T03:21:03.576Z,100889.59
2018-05-31T03:23:31.872Z,100884.78
2018-05-31T03:26:00.255Z,100894.81
2018-05-31T03:28:28.535Z,100891.16
2018-05-31T03:30:57.589Z,100888.52
2018-05-31T03:33:25.866Z,100894.45
2018-05-31T03:35:54.141Z,100887.73
2018-05-31T03:38:22.438Z,100894.37
2018-05-31T03:40:50.688Z,100894.45
2018-05-31T03:43:19.727Z,100894.87
2018-05-31T03:45:48.013Z,100905.49
2018-05-31T03:48:16.289Z,100909.77
2018-05-31T03:50:45.334Z,100913.12
2018-05-31T03:53:13.808Z,100926.19
2018-05-31T03:55:42.119Z,100918.11
2018-05-31T03:58:10.421Z,100914.45
2018-05-31T04:01:03.892Z,100919.77
2018-05-31T04:03:32.240Z,100923.39
2018-05-31T04:06:01.266Z,100922.62
2018-05-31T04:08:30.410Z,100920.40
2018-05-31T04:10:58.773Z,100912.47
2018-05-31T04:13:27.042Z,100916.36
2018-05-31T04:15:56.071Z,100913.79
2018-05-31T04:18:24.461Z,100908.38
2018-05-31T04:20:52.752Z,100913.83
2018-05-31T04:23:21.041Z,100908.11
2018-05-31T04:25:49.338Z,100905.74
2018-05-31T04:28:17.619Z,100910.48
2018-05-31T04:30:45.901Z,100917.83
2018-05-31T04:33:14.937Z,100929.53
2018-05-31T04:35:43.209Z,100945.90
2018-05-31T04:38:11.498Z,100946.25
2018-05-31T04:40:39.742Z,100950.13
2018-05-31T04:43:09.577Z,100944.50
2018-05-31T04:45:38.650Z,100935.28
2018-05-31T04:48:06.921Z,100933.88
2018-05-31T04:50:35.311Z,100929.54
2018-05-31T04:53:03.576Z,100934.60
2018-05-31T04:55:32.605Z,100936.59
2018-05-31T04:58:00.892Z,100942.76
2018-05-31T05:00:29.188Z,100942.86
2018-05-31T05:02:57.510Z,100940.56
2018-05-31T05:05:25.765Z,100939.83
2018-05-31T05:07:54.061Z,100935.87
2018-05-31T05:10:22.346Z,100942.23
2018-05-31T05:12:50.614Z,100936.13
2018-05-31T05:15:19.750Z,100938.52
2018-05-31T05:17:49.349Z,100935.81
2018-05-31T05:20:21.253Z,100939.27
2018-05-31T05:22:49.695Z,100941.09
2018-05-31T05:25:20.430Z,100939.09
2018-05-31T05:27:50.943Z,100931.29
2018-05-31T05:30:21.387Z,100934.32
2018-05-31T05:32:50.440Z,100947.20
2018-05-31T05:35:18.769Z,100947.53
2018-05-31T05:37:47.047Z,100952.13
2018-05-31T05:40:16.313Z,100945.91
2018-05-31T05:42:44.603Z,100938.06
2018-05-31T05:45:12.962Z,100946.05
2018-05-31T05:47:41.243Z,100944.63
2018-05-31T05:50:09.534Z,100945.31
2018-05-31T05:52:37.781Z,100951.84
2018-05-31T05:55:06.054Z,100960.09
2018-05-31T05:57:34.330Z,100951.98
2018-05-31T06:00:02.581Z,100950.92
2018-05-31T06:02:31.707Z,100950.95
2018-05-31T06:04:59.997Z,100941.44
2018-05-31T06:07:28.284Z,100943.80
2018-05-31T06:09:56.616Z,100947.61
2018-05-31T06:12:25.613Z,100955.08
2018-05-31T06:14:53.868Z,100962.63
2018-05-31T06:17:22.145Z,100972.77
2018-05-31T06:19:51.286Z,100982.31
2018-05-31T06:22:19.715Z,100986.16
2018-05-31T06:24:48.165Z,100987.91
2018-05-31T06:27:16.419Z,100990.13
2018-05-31T06:29:45.590Z,100996.69
2018-05-31T06:32:13.887Z,100997.85
2018-05-31T06:34:42.269Z,100999.58
2018-05-31T06:37:10.556Z,101002.44
2018-05-31T06:39:38.911Z,100996.58
2018-05-31T06:42:07.963Z,101005.33
2018-05-31T06:44:36.233Z,101002.17
2018-05-31T06:47:04.491Z,101011.16
2018-05-31T06:49:33.626Z,101013.88
2018-05-31T06:52:01.990Z,101010.47
2018-05-31T06:54:30.277Z,101011.45
2018-05-31T06:56:58.543Z,101012.87
2018-05-31T06:59:26.803Z,101011.70
2018-05-31T07:01:55.098Z,101008.27
2018-05-31T07:04:23.365Z,101017.45
2018-05-31T07:06:52.477Z,101014.59
2018-05-31T07:09:20.770Z,101024.13
2018-05-31T07:11:49.066Z,101018.70
2018-05-31T07:14:17.470Z,101021.15
2018-05-31T07:16:45.812Z,101020.60
2018-05-31T07:19:14.854Z,101016.62
2018-05-31T07:21:43.185Z,101018.78
2018-05-31T07:24:11.595Z,101019.45
2018-05-31T07:26:39.926Z,101011.41
2018-05-31T07:29:08.353Z,101016.80
2018-05-31T07:31:36.638Z,101015.92
2018-05-31T07:34:04.910Z,101018.18
2018-05-31T07:36:33.295Z,101013.81
2018-05-31T07:39:01.584Z,101018.22
2018-05-31T07:41:29.839Z,101011.44
2018-05-31T07:43:58.314Z,101013.31
2018-05-31T07:46:26.588Z,101008.27
2018-05-31T07:48:54.976Z,101007.63
2018-05-31T07:51:23.653Z,101004.08
2018-05-31T07:53:51.946Z,101004.19
2018-05-31T07:56:21.160Z,101000.03
2018-05-31T07:58:49.430Z,101005.38
2018-05-31T08:01:17.836Z,101002.78
2018-05-31T08:03:46.092Z,101001.11
2018-05-31T08:06:15.237Z,101001.42
2018-05-31T08:08:43.505Z,101005.33
2018-05-31T08:11:12.555Z,101000.42
2018-05-31T08:13:41.347Z,100996.83
2018-05-31T08:16:09.831Z,100994.09
2018-05-31T08:18:38.110Z,100995.65
2018-05-31T08:21:08.150Z,100998.49
2018-05-31T08:23:37.179Z,101000.45
2018-05-31T08:26:05.444Z,101006.02
2018-05-31T08:28:33.840Z,101007.08
2018-05-31T08:31:02.119Z,101010.75
2018-05-31T08:33:31.148Z,101012.23
2018-05-31T08:35:59.429Z,101016.62
2018-05-31T08:38:27.715Z,101018.59
2018-05-31T08:40:59.685Z,101022.54
2018-05-31T08:43:28.563Z,101023.31
2018-05-31T08:45:59.492Z,101028.27
2018-05-31T08:48:31.380Z,101028.13
2018-05-31T08:50:59.942Z,101030.41
2018-05-31T08:53:28.206Z,101020.81
2018-05-31T08:55:56.607Z,101025.70
2018-05-31T08:58:25.617Z,101022.84
2018-05-31T09:00:53.911Z,101025.06
2018-05-31T09:03:22.192Z,101028.02
2018-05-31T09:05:51.222Z,101030.11
2018-05-31T09:08:19.523Z,101030.36
2018-05-31T09:10:47.987Z,101026.92
2018-05-31T09:13:16.240Z,101033.44
2018-05-31T09:15:44.494Z,101026.08
2018-05-31T09:18:12.963Z,101025.47
2018-05-31T09:20:41.350Z,101025.98
2018-05-31T09:23:10.411Z,101022.39
2018-05-31T09:25:38.752Z,101020.22
2018-05-31T09:28:07.852Z,101023.39
2018-05-31T09:30:36.894Z,101021.84
2018-05-31T09:33:05.168Z,101023.46
2018-05-31T09:35:33.447Z,101021.98
2018-05-31T09:38:02.763Z,101024.64
2018-05-31T09:40:31.177Z,101026.84
2018-05-31T09:42:59.446Z,101026.63
2018-05-31T09:45:28.475Z,101032.16
2018-05-31T09:47:56.757Z,101032.71
2018-05-31T09:50:25.033Z,101032.83
2018-05-31T09:52:54.058Z,101029.92
2018-05-31T09:55:22.352Z,101036.29
2018-05-31T09:57:51.402Z,101038.36
2018-05-31T10:00:19.753Z,101042.30
2018-05-31T10:02:48.822Z,101041.72
2018-05-31T10:05:17.119Z,101040.59
2018-05-31T10:07:46.160Z,101041.93
2018-05-31T10:10:14.541Z,101047.06
2018-05-31T10:12:42.818Z,101047.37
2018-05-31T10:15:11.846Z,101046.46
2018-05-31T10:17:40.108Z,101044.92
2018-05-31T10:20:08.363Z,101042.58
2018-05-31T10:22:36.692Z,101048.29
2018-05-31T10:25:05.750Z,101047.44
2018-05-31T10:27:34.099Z,101038.03
2018-05-31T10:30:03.297Z,101045.80
2018-05-31T10:32:32.419Z,101045.86
2018-05-31T10:35:01.440Z,101054.22
2018-05-31T10:37:29.706Z,101050.53
2018-05-31T10:39:58.754Z,101048.55
2018-05-31T10:42:27.020Z,101051.05
2018-05-31T10:44:55.286Z,101048.19
2018-05-31T10:47:24.315Z,101047.69
2018-05-31T10:49:52.712Z,101045.23
2018-05-31T10:52:21.026Z,101041.00
2018-05-31T10:54:49.326Z,101038.45
2018-05-31T10:57:17.652Z,101040.08
2018-05-31T10:59:45.987Z,101038.80
2018-05-31T11:02:14.267Z,101042.41
2018-05-31T11:04:42.532Z,101030.28
2018-05-31T11:07:11.667Z,101033.84
2018-05-31T11:09:39.940Z,101031.45
2018-05-31T11:12:08.963Z,101029.07
2018-05-31T11:14:37.240Z,101029.00
2018-05-31T11:17:06.357Z,101023.28
2018-05-31T11:19:35.390Z,101015.34
2018-05-31T11:22:03.648Z,101014.35
2018-05-31T11:24:32.679Z,101012.02
2018-05-31T11:27:00.955Z,101019.06
2018-05-31T11:29:29.986Z,101012.92
2018-05-31T11:31:58.273Z,101011.36
2018-05-31T11:34:26.652Z,101014.92
2018-05-31T11:36:54.908Z,101014.50
2018-05-31T11:39:23.189Z,101017.03
2018-05-31T11:41:51.458Z,101012.67
2018-05-31T11:44:22.095Z,101020.29
2018-05-31T11:46:50.357Z,101017.85
2018-05-31T11:49:18.649Z,101020.20
2018-05-31T11:51:46.933Z,101017.56
2018-05-31T11:54:15.246Z,101028.98
2018-05-31T11:56:43.513Z,101027.88
2018-05-31T11:59:11.811Z,101024.88
2018-05-31T12:01:40.143Z,101037.05
2018-05-31T12:04:08.402Z,101021.69
2018-05-31T12:06:36.659Z,101015.77
2018-05-31T12:09:06.414Z,101009.33
2018-05-31T12:11:34.671Z,101014.52
2018-05-31T12:14:03.693Z,101004.70
2018-05-31T12:16:31.978Z,101009.89
2018-05-31T12:19:01.097Z,101002.69
2018-05-31T12:21:29.355Z,101003.94
2018-05-31T12:23:57.631Z,101005.51
2018-05-31T12:26:25.909Z,101004.35
2018-05-31T12:28:54.174Z,100998.01
2018-05-31T12:31:22.464Z,100993.56
2018-05-31T12:33:50.744Z,100988.89
2018-05-31T12:36:19.030Z,100988.79
2018-05-31T12:38:47.310Z,100987.42
2018-05-31T12:41:16.367Z,100983.91
2018-05-31T12:43:44.725Z,100978.60
2018-05-31T12:46:13.015Z,100976.37
2018-05-31T12:48:42.065Z,100971.12
2018-05-31T12:51:11.093Z,100970.34
2018-05-31T12:53:39.415Z,100964.45
2018-05-31T12:56:07.627Z,100969.37
2018-05-31T12:58:35.905Z,100976.67
2018-05-31T13:01:05.207Z,100978.70
2018-05-31T13:03:34.242Z,100972.37
2018-05-31T13:06:02.611Z,100974.84
2018-05-31T13:08:30.819Z,100968.03
2018-05-31T13:10:59.187Z,100964.73
2018-05-31T13:13:28.629Z,100960.16
2018-05-31T13:15:56.917Z,100959.70
2018-05-31T13:18:25.173Z,100957.58
2018-05-31T13:20:54.233Z,100948.84
2018-05-31T13:23:22.515Z,100953.47
2018-05-31T13:25:50.785Z,100963.23
2018-05-31T13:28:19.066Z,100960.70
2018-05-31T13:30:49.384Z,100959.20
2018-05-31T13:33:18.624Z,100961.70
2018-05-31T13:35:46.893Z,100960.92
2018-05-31T13:38:15.193Z,100968.19
2018-05-31T13:40:43.449Z,100970.76
2018-05-31T13:43:11.725Z,100971.12
2018-05-31T13:45:39.990Z,100972.97
2018-05-31T13:48:08.243Z,100972.72
2018-05-31T13:50:37.277Z,100966.90
2018-05-31T13:53:05.590Z,100970.67
2018-05-31T13:55:33.850Z,100962.73
2018-05-31T13:58:02.235Z,100968.09
2018-05-31T14:00:30.522Z,100959.38
2018-05-31T14:02:59.634Z,100959.30
2018-05-31T14:05:27.923Z,100953.33
2018-05-31T14:07:56.971Z,100956.95
2018-05-31T14:10:25.235Z,100960.73
2018-05-31T14:12:53.499Z,100962.06
2018-05-31T14:15:22.550Z,100959.37
2018-05-31T14:17:50.840Z,100963.22
2018-05-31T14:20:19.101Z,100965.83
2018-05-31T14:22:47.395Z,100969.36
2018-05-31T14:25:15.678Z,100967.10
2018-05-31T14:27:43.957Z,100958.11
2018-05-31T14:30:14.250Z,100956.77
2018-05-31T14:32:43.304Z,100955.50
2018-05-31T14:35:12.428Z,100956.55
2018-05-31T14:37:40.701Z,100955.27
2018-05-31T14:40:09.726Z,100957.19
2018-05-31T14:42:37.997Z,100961.59
2018-05-31T14:45:07.024Z,100953.48
2018-05-31T14:47:35.293Z,100947.16
2018-05-31T14:50:04.302Z,100943.83
2018-05-31T14:52:33.358Z,100945.61
2018-05-31T14:55:01.638Z,100934.58
2018-05-31T14:57:29.913Z,100932.97
2018-05-31T14:59:58.199Z,100935.02
2018-05-31T15:02:26.502Z,100936.50
2018-05-31T15:04:54.743Z,100930.47
2018-05-31T15:07:23.061Z,100936.59
2018-05-31T15:09:52.081Z,100931.84
2018-05-31T15:12:20.354Z,100926.44
2018-05-31T15:14:49.385Z,100924.10
2018-05-31T15:17:17.661Z,100926.40
2018-05-31T15:19:46.703Z,100919.50
2018-05-31T15:22:14.991Z,100924.80
2018-05-31T15:24:43.281Z,100918.14
2018-05-31T15:27:11.559Z,100923.88
2018-05-31T15:29:39.858Z,100924.50
2018-05-31T15:32:08.197Z,100930.78
2018-05-31T15:34:36.488Z,100930.02
2018-05-31T15:37:05.521Z,100928.94
2018-05-31T15:39:33.808Z,100936.75
2018-05-31T15:42:02.847Z,100935.20
2018-05-31T15:44:31.174Z,100929.05
2018-05-31T15:46:59.439Z,100928.58
2018-05-31T15:49:28.499Z,100918.35
2018-05-31T15:51:57.545Z,100924.23
2018-05-31T15:54:25.857Z,100920.72
2018-05-31T15:56:54.175Z,100928.42
2018-05-31T15:59:22.432Z,100928.81
2018-05-31T16:01:50.695Z,100923.31
2018-05-31T16:04:18.971Z,100919.50
2018-05-31T16:06:47.393Z,100917.80
2018-05-31T16:09:15.656Z,100911.67
2018-05-31T16:11:44.241Z,100914.39
2018-05-31T16:14:12.499Z,100910.16
2018-05-31T16:16:42.782Z,100906.31
2018-05-31T16:19:11.041Z,100896.84
2018-05-31T16:21:40.173Z,100896.98
2018-05-31T16:24:09.199Z,100892.11
2018-05-31T16:26:37.476Z,100894.39
2018-05-31T16:29:05.745Z,100890.12
2018-05-31T16:31:34.771Z,100895.83
2018-05-31T16:34:03.062Z,100895.77
2018-05-31T16:36:31.348Z,100897.50
2018-05-31T16:38:59.621Z,100888.91
2018-05-31T16:41:28.647Z,100886.70
2018-05-31T16:43:56.918Z,100884.67
2018-05-31T16:46:25.942Z,100884.67
2018-05-31T16:48:54.193Z,100885.41
2018-05-31T16:51:22.497Z,100883.91
2018-05-31T16:53:50.784Z,100880.47
2018-05-31T16:56:19.055Z,100879.83
2018-05-31T16:58:47.420Z,100882.56
2018-05-31T17:01:16.423Z,100881.92
2018-05-31T17:03:44.698Z,100888.19
2018-05-31T17:06:12.954Z,100888.29
2018-05-31T17:08:41.248Z,100896.51
2018-05-31T17:11:10.314Z,100899.66
2018-05-31T17:13:38.618Z,100894.72
2018-05-31T17:16:06.879Z,100890.93
2018-05-31T17:18:35.158Z,100890.50
2018-05-31T17:21:03.429Z,100891.97
2018-05-31T17:23:32.453Z,100892.45
2018-05-31T17:26:00.742Z,100892.31
2018-05-31T17:28:29.056Z,100899.33
2018-05-31T17:30:57.307Z,100902.30
2018-05-31T17:33:25.619Z,100901.41
2018-05-31T17:35:54.006Z,100899.27
2018-05-31T17:38:23.115Z,100898.24
2018-05-31T17:40:52.164Z,100893.17
2018-05-31T17:43:21.236Z,100899.75
2018-05-31T17:45:49.520Z,100904.28
2018-05-31T17:48:17.794Z,100902.31
2018-05-31T17:50:46.833Z,100907.81
2018-05-31T17:53:16.107Z,100909.20
2018-05-31T17:55:45.170Z,100914.86
2018-05-31T17:58:13.536Z,100913.78
2018-05-31T18:00:41.797Z,100909.62
2018-05-31T18:03:10.822Z,100909.84
2018-05-31T18:05:39.105Z,100911.17
2018-05-31T18:08:08.232Z,100915.18
2018-05-31T18:10:37.345Z,100919.34
2018-05-31T18:13:05.625Z,100917.41
2018-05-31T18:15:33.955Z,100913.72
2018-05-31T18:18:02.416Z,100912.09
2018-05-31T18:20:31.536Z,100914.48
2018-05-31T18:22:59.809Z,100914.91
2018-05-31T18:25:28.067Z,100913.84
2018-05-31T18:27:57.122Z,100903.80
2018-05-31T18:30:25.387Z,100902.63
2018-05-31T18:32:54.423Z,100908.88
2018-05-31T18:35:22.805Z,100900.66
2018-05-31T18:37:51.851Z,100895.44
2018-05-31T18:40:20.145Z,100901.63
2018-05-31T18:42:48.438Z,100900.08
2018-05-31T18:45:16.718Z,100906.05
2018-05-31T18:47:45.093Z,100910.14
2018-05-31T18:50:13.467Z,100915.16
2018-05-31T18:52:42.486Z,100920.54
2018-05-31T18:55:10.851Z,100914.50
2018-05-31T18:57:39.900Z,100912.54
2018-05-31T19:00:08.166Z,100921.02
2018-05-31T19:02:36.440Z,100912.31
2018-05-31T19:05:05.497Z,100915.06
2018-05-31T19:07:33.755Z,100915.89
2018-05-31T19:10:02.037Z,100920.31
2018-05-31T19:12:35.836Z,100922.35
2018-05-31T19:15:04.882Z,100930.88
2018-05-31T19:17:33.249Z,100931.88
2018-05-31T19:20:02.307Z,100937.56
2018-05-31T19:22:30.582Z,100936.02
2018-05-31T19:25:04.381Z,100947.69
2018-05-31T19:27:33.475Z,100949.44
2018-05-31T19:30:08.232Z,100962.67
2018-05-31T19:32:37.256Z,100965.50
2018-05-31T19:35:05.564Z,100960.60
2018-05-31T19:37:33.930Z,100965.19
2018-05-31T19:40:02.210Z,100973.64
2018-05-31T19:42:36.026Z,100971.23
2018-05-31T19:45:05.069Z,100975.41
2018-05-31T19:47:33.422Z,100974.66
2018-05-31T19:50:02.477Z,100978.73
2018-05-31T19:52:37.121Z,100979.47
2018-05-31T19:55:05.432Z,100984.39
2018-05-31T20:00:42.502Z,100977.25
2018-05-31T20:03:16.442Z,100973.34
2018-05-31T20:05:44.794Z,100982.16
2018-05-31T20:08:13.980Z,100987.66
2018-05-31T20:10:42.436Z,101002.80
2018-05-31T20:13:10.715Z,101007.33
2018-05-31T20:15:39.014Z,101009.36
2018-05-31T20:18:07.280Z,101010.91
2018-05-31T20:20:36.391Z,101008.86
2018-05-31T20:23:05.526Z,101010.68
2018-05-31T20:25:33.839Z,101001.19
2018-05-31T20:28:02.120Z,101003.99
2018-05-31T20:30:30.484Z,101007.39
2018-05-31T20:32:59.552Z,101008.95
2018-05-31T20:35:27.862Z,101011.08
2018-05-31T20:37:56.153Z,101016.89
2018-05-31T20:40:24.505Z,101014.47
2018-05-31T20:42:53.223Z,101027.37
2018-05-31T20:45:21.582Z,101020.97
2018-05-31T20:47:49.970Z,101020.66
2018-05-31T20:50:18.355Z,101018.94
2018-05-31T20:52:46.657Z,101020.48
2018-05-31T20:55:15.036Z,101016.34
2018-05-31T20:57:43.428Z,101013.95
2018-05-31T21:00:11.688Z,101010.91
2018-05-31T21:02:40.730Z,101005.33
2018-05-31T21:05:09.028Z,101005.25
2018-05-31T21:07:37.282Z,100999.45
2018-05-31T21:10:06.341Z,100996.05
2018-05-31T21:12:34.695Z,100996.32
2018-05-31T21:15:03.734Z,101003.02
2018-05-31T21:17:31.995Z,100997.98
2018-05-31T21:20:00.351Z,100991.76
2018-05-31T21:22:28.833Z,100988.33
2018-05-31T21:24:57.188Z,100991.44
2018-05-31T21:27:25.583Z,100995.36
2018-05-31T21:29:53.915Z,100986.74
2018-05-31T21:32:22.252Z,100984.64
2018-05-31T21:34:51.388Z,100986.11
2018-05-31T21:37:19.677Z,100976.94
2018-05-31T21:39:47.942Z,100982.82
2018-05-31T21:42:18.376Z,100982.13
2018-05-31T21:44:47.693Z,100990.98
2018-05-31T21:47:16.818Z,100994.33
2018-05-31T21:49:45.866Z,100994.52
2018-05-31T21:52:14.141Z,100988.34
2018-05-31T21:54:42.401Z,100990.22
2018-05-31T21:57:10.699Z,100995.88
2018-05-31T21:59:39.813Z,100998.33
2018-05-31T22:02:08.082Z,100996.45
2018-05-31T22:04:37.294Z,100997.36
2018-05-31T22:07:06.430Z,100998.17
2018-05-31T22:09:34.694Z,101001.12
2018-05-31T22:12:03.724Z,100997.87
2018-05-31T22:14:32.010Z,101001.65
2018-05-31T22:17:00.293Z,101000.92
2018-05-31T22:19:28.589Z,101000.82
2018-05-31T22:21:56.883Z,100996.98
2018-05-31T22:24:28.787Z,100997.80
2018-05-31T22:26:59.518Z,100995.45
2018-05-31T22:29:28.908Z,100996.42
2018-05-31T22:32:02.322Z,101001.44
2018-05-31T22:34:31.439Z,100992.42
2018-05-31T22:36:59.710Z,100983.15
2018-05-31T22:39:28.760Z,100981.73
2018-05-31T22:41:57.023Z,100976.22
2018-05-31T22:44:25.287Z,100980.67
2018-05-31T22:46:53.581Z,100984.48
2018-05-31T22:49:21.839Z,100979.06
2018-05-31T22:51:50.202Z,100974.12
2018-05-31T22:54:18.487Z,100961.12
2018-05-31T22:56:46.758Z,100964.77
2018-05-31T22:59:15.799Z,100966.27
2018-05-31T23:01:44.099Z,100964.20
2018-05-31T23:04:12.378Z,100965.63
2018-05-31T23:06:40.648Z,100974.39
2018-05-31T23:09:08.956Z,100973.53
2018-05-31T23:11:37.227Z,100968.62
2018-05-31T23:14:05.505Z,100965.53
2018-05-31T23:16:34.573Z,100961.89
2018-05-31T23:19:02.815Z,100957.70
2018-05-31T23:21:31.084Z,100950.76
2018-05-31T23:24:00.426Z,100959.61
2018-05-31T23:26:28.682Z,100965.90
2018-05-31T23:28:56.939Z,100970.28
2018-05-31T23:31:25.237Z,100969.86
2018-05-31T23:33:53.510Z,100966.22
2018-05-31T23:36:21.790Z,100966.52
2018-05-31T23:38:50.076Z,100976.13
2018-05-31T23:41:18.408Z,100978.84
2018-05-31T23:43:46.735Z,100975.08
2018-05-31T23:46:15.958Z,100979.77
2018-05-31T23:48:44.258Z,100975.53
2018-05-31T23:51:12.574Z,100976.89
2018-05-31T23:53:40.867Z,100976.70
2018-05-31T23:56:09.134Z,100981.73
2018-05-31T23:58:37.413Z,100987.08
